Time;durP1;ratioP1;P1;durP2;ratioP2;P2;SDS_P1;SDS_P2;PMS_P1;PMS_P2;Temp;Humidity;BMP_temperature;BMP_pressure;BME280_temperature;BME280_humidity;BME280_pressure;Samples;Min_cycle;Max_cycle;Signal;HPM_P1;HPM_P2
2022/06/01 00:01:34;;;;;;;5.72;4.78;;;15.40;99.90;;;;;;5074288;28;20265;-72
2022/06/01 00:03:59;;;;;;;6.25;5.20;;;15.40;99.90;;;;;;5073960;28;20199;-73
2022/06/01 00:06:26;;;;;;;5.43;4.88;;;15.40;99.90;;;;;;5073702;28;20263;-72
2022/06/01 00:08:52;;;;;;;6.32;5.15;;;15.50;99.90;;;;;;5062198;28;20274;-73
2022/06/01 00:11:17;;;;;;;5.57;4.97;;;15.50;99.90;;;;;;5093886;28;20957;-71
2022/06/01 00:13:43;;;;;;;6.50;5.45;;;15.40;99.90;;;;;;5094467;28;20177;-71
2022/06/01 00:16:09;;;;;;;6.13;5.32;;;15.40;99.90;;;;;;5093997;28;20206;-71
2022/06/01 00:18:36;;;;;;;7.45;5.38;;;15.30;99.90;;;;;;5092885;28;20198;-72
2022/06/01 00:21:03;;;;;;;6.97;5.40;;;15.40;99.90;;;;;;5075164;28;20205;-71
2022/06/01 00:23:29;;;;;;;6.10;5.20;;;15.50;99.90;;;;;;5093593;28;20198;-71
2022/06/01 00:25:54;;;;;;;7.80;6.10;;;15.50;99.90;;;;;;5093457;28;20196;-71
2022/06/01 00:28:21;;;;;;;8.05;5.65;;;15.50;99.90;;;;;;5093486;28;20201;-73
2022/06/01 00:30:47;;;;;;;7.13;5.55;;;15.50;99.90;;;;;;5093334;28;20230;-71
2022/06/01 00:33:12;;;;;;;6.28;5.50;;;15.40;99.90;;;;;;5093533;28;20248;-71
2022/06/01 00:35:38;;;;;;;6.85;5.35;;;15.30;99.90;;;;;;5075055;28;20218;-71
2022/06/01 00:38:04;;;;;;;6.32;5.70;;;15.40;99.90;;;;;;5063127;28;20261;-72
2022/06/01 00:40:30;;;;;;;9.27;4.82;;;15.40;99.90;;;;;;5093556;28;20202;-73
2022/06/01 00:42:58;;;;;;;6.68;5.05;;;15.40;99.90;;;;;;5093444;28;20217;-71
2022/06/01 00:45:25;;;;;;;6.47;5.03;;;15.40;99.90;;;;;;5094241;28;20674;-71
2022/06/01 00:47:52;;;;;;;5.38;4.43;;;15.50;99.90;;;;;;5092962;28;20198;-71
2022/06/01 00:50:22;;;;;;;4.70;4.25;;;15.50;99.90;;;;;;5092726;28;20266;-72
2022/06/01 00:52:54;;;;;;;5.53;4.97;;;15.40;99.90;;;;;;5075353;28;20167;-72
2022/06/01 00:55:32;;;;;;;6.22;4.97;;;15.40;99.90;;;;;;5093652;28;20198;-72
2022/06/01 00:58:12;;;;;;;5.30;4.80;;;15.50;99.90;;;;;;5092703;28;20202;-72
2022/06/01 01:00:40;;;;;;;6.75;4.82;;;15.50;99.90;;;;;;5092719;28;20198;-72
2022/06/01 01:03:10;;;;;;;6.30;5.03;;;15.50;99.90;;;;;;5092882;28;20195;-73
2022/06/01 01:05:38;;;;;;;5.22;4.25;;;15.30;99.90;;;;;;5092729;28;20568;-72
2022/06/01 01:08:05;;;;;;;7.30;4.55;;;15.20;99.90;;;;;;5062537;28;20210;-71
2022/06/01 01:10:32;;;;;;;4.97;4.15;;;15.20;99.90;;;;;;5074925;28;20183;-71
2022/06/01 01:13:01;;;;;;;4.78;4.30;;;15.10;99.90;;;;;;5092876;28;20240;-71
2022/06/01 01:15:34;;;;;;;6.40;4.55;;;15.10;99.90;;;;;;5092690;28;20202;-72
2022/06/01 01:18:02;;;;;;;6.35;4.55;;;15.10;99.90;;;;;;5073643;28;20198;-72
2022/06/01 01:20:28;;;;;;;7.32;5.35;;;15.10;99.90;;;;;;5074247;28;20202;-71
2022/06/01 01:23:06;;;;;;;5.40;4.55;;;15.10;99.90;;;;;;5092931;28;20167;-71
2022/06/01 01:25:33;;;;;;;5.88;4.50;;;15.10;99.90;;;;;;5093301;28;20689;-72
2022/06/01 01:28:01;;;;;;;7.38;4.93;;;15.10;99.90;;;;;;5092026;28;20226;-72
2022/06/01 01:30:36;;;;;;;4.50;4.10;;;15.20;99.90;;;;;;5113731;22;20225;-72
2022/06/01 01:33:08;;;;;;;4.85;4.45;;;15.20;99.90;;;;;;5089745;28;20296;-73
2022/06/01 01:35:34;;;;;;;5.03;4.40;;;15.10;99.90;;;;;;5091545;28;20226;-73
2022/06/01 01:38:06;;;;;;;5.20;4.70;;;15.10;99.90;;;;;;5084114;28;20273;-70
2022/06/01 01:40:32;;;;;;;5.88;4.70;;;15.00;99.90;;;;;;5091820;28;20552;-73
2022/06/01 01:43:00;;;;;;;4.40;4.00;;;14.90;99.90;;;;;;5091664;28;20600;-73
2022/06/01 01:45:28;;;;;;;5.03;4.55;;;14.90;99.90;;;;;;5090200;28;20205;-73
2022/06/01 01:47:54;;;;;;;5.90;4.57;;;14.90;99.90;;;;;;5089986;28;20202;-72
2022/06/01 01:50:21;;;;;;;4.72;4.28;;;14.90;99.90;;;;;;5089697;28;20226;-72
2022/06/01 01:52:47;;;;;;;4.88;4.38;;;14.90;99.90;;;;;;5084003;28;20186;-72
2022/06/01 01:55:27;;;;;;;4.97;4.30;;;14.90;99.90;;;;;;5090114;28;20290;-73
2022/06/01 01:58:23;;;;;;;4.20;3.80;;;14.90;99.90;;;;;;5083779;28;20685;-72
2022/06/01 02:00:56;;;;;;;4.63;3.83;;;14.90;99.90;;;;;;5082770;28;20213;-73
2022/06/01 02:03:43;;;;;;;4.80;4.03;;;14.90;99.90;;;;;;5091278;28;20205;-73
2022/06/01 02:06:14;;;;;;;5.07;3.90;;;15.00;99.90;;;;;;5091264;28;20198;-73
2022/06/01 02:08:48;;;;;;;3.90;3.47;;;15.00;99.90;;;;;;5083651;28;20211;-72
2022/06/01 02:14:53;;;;;;;3.58;3.25;;;15.00;99.90;;;;;;5088112;28;20225;-72
2022/06/01 02:17:25;;;;;;;3.70;3.40;;;15.00;99.90;;;;;;5086861;28;20321;-71
2022/06/01 02:20:00;;;;;;;3.55;3.08;;;15.00;99.90;;;;;;5073499;28;20186;-71
2022/06/01 02:22:26;;;;;;;3.72;3.33;;;15.00;99.90;;;;;;5091385;28;20268;-71
2022/06/01 02:24:52;;;;;;;6.28;3.47;;;15.00;99.90;;;;;;5089619;28;20744;-71
2022/06/01 02:27:19;;;;;;;3.65;3.35;;;15.00;99.90;;;;;;5090612;28;20202;-71
2022/06/01 02:30:07;;;;;;;4.40;3.45;;;15.00;99.90;;;;;;5087374;28;20217;-71
2022/06/01 02:32:34;;;;;;;4.10;3.05;;;15.00;99.90;;;;;;5090618;28;20275;-73
2022/06/01 02:35:03;;;;;;;4.18;2.90;;;15.00;99.90;;;;;;5089436;28;20189;-73
2022/06/01 02:37:30;;;;;;;3.85;2.95;;;15.00;99.90;;;;;;5089894;28;20223;-74
2022/06/01 02:39:57;;;;;;;3.88;3.00;;;15.00;99.90;;;;;;5088630;28;20233;-72
2022/06/01 02:42:25;;;;;;;3.78;2.90;;;14.90;99.90;;;;;;5089861;28;20198;-73
2022/06/01 02:45:09;;;;;;;3.25;2.50;;;14.90;99.90;;;;;;5090770;28;20693;-70
2022/06/01 02:47:38;;;;;;;3.05;2.75;;;14.90;99.90;;;;;;5090619;28;20216;-70
2022/06/01 02:50:06;;;;;;;3.05;2.60;;;14.80;99.90;;;;;;5080144;28;20190;-70
2022/06/01 02:52:31;;;;;;;3.28;2.97;;;14.80;99.90;;;;;;5089875;28;20177;-71
2022/06/01 02:54:57;;;;;;;3.40;3.08;;;14.90;99.90;;;;;;5089016;28;20202;-72
2022/06/01 02:57:23;;;;;;;3.55;2.90;;;14.90;99.90;;;;;;5088788;28;20198;-71
2022/06/01 02:59:50;;;;;;;4.03;3.17;;;14.90;99.90;;;;;;5090009;28;20662;-71
2022/06/01 03:02:17;;;;;;;2.88;2.63;;;14.90;99.90;;;;;;5088959;28;20206;-71
2022/06/01 03:04:43;;;;;;;3.28;2.90;;;14.90;99.90;;;;;;5089697;28;20179;-71
2022/06/01 03:07:10;;;;;;;3.67;2.65;;;14.90;99.90;;;;;;5089022;28;20231;-71
2022/06/01 03:09:36;;;;;;;3.70;2.90;;;14.90;99.90;;;;;;5089470;28;20263;-71
2022/06/01 03:12:02;;;;;;;3.05;2.75;;;14.90;99.90;;;;;;5090571;28;20206;-71
2022/06/01 03:14:28;;;;;;;4.57;2.95;;;14.90;99.90;;;;;;5090181;28;20213;-71
2022/06/01 03:16:55;;;;;;;3.47;2.60;;;14.80;99.90;;;;;;5089083;28;20170;-72
2022/06/01 03:19:21;;;;;;;5.55;2.85;;;14.80;99.90;;;;;;5079679;28;20259;-71
2022/06/01 03:21:46;;;;;;;5.20;2.90;;;14.80;99.90;;;;;;5089188;28;20201;-71
2022/06/01 03:24:12;;;;;;;3.30;3.00;;;14.80;99.90;;;;;;5090550;28;20698;-71
2022/06/01 03:26:38;;;;;;;3.38;2.85;;;14.80;99.90;;;;;;5088856;28;20224;-71
2022/06/01 03:29:04;;;;;;;2.72;2.47;;;14.90;99.90;;;;;;5087996;28;20518;-71
2022/06/01 03:31:30;;;;;;;3.08;2.63;;;14.90;99.90;;;;;;5089013;28;20210;-71
2022/06/01 03:33:57;;;;;;;2.97;2.47;;;14.90;99.90;;;;;;5088778;28;20202;-71
2022/06/01 03:36:23;;;;;;;3.25;2.95;;;14.90;99.90;;;;;;5088464;28;20214;-70
2022/06/01 03:38:49;;;;;;;3.38;2.72;;;15.00;99.90;;;;;;5090174;28;20194;-71
2022/06/01 03:41:14;;;;;;;2.95;2.65;;;15.00;99.90;;;;;;5088969;28;20281;-71
2022/06/01 03:46:24;;;;;;;2.92;2.70;;;15.00;99.90;;;;;;5090301;28;20228;-71
2022/06/01 03:48:50;;;;;;;3.15;2.85;;;15.10;99.90;;;;;;5084177;28;20218;-71
2022/06/01 03:51:16;;;;;;;4.68;3.28;;;15.20;99.90;;;;;;5084353;28;20210;-71
2022/06/01 03:53:42;;;;;;;3.53;3.08;;;15.40;99.90;;;;;;5089337;28;20233;-71
2022/06/01 03:56:08;;;;;;;3.25;2.83;;;15.60;99.90;;;;;;5092298;28;20631;-71
2022/06/01 03:58:34;;;;;;;3.33;3.00;;;15.70;99.90;;;;;;5093555;28;20236;-71
2022/06/01 04:01:00;;;;;;;3.65;3.22;;;15.70;99.90;;;;;;5094075;28;20678;-71
2022/06/01 04:03:26;;;;;;;5.60;3.55;;;15.90;99.90;;;;;;5091976;28;20208;-71
2022/06/01 04:05:51;;;;;;;4.82;3.67;;;16.00;99.90;;;;;;5092153;28;20203;-71
2022/06/01 04:08:17;;;;;;;4.30;3.90;;;16.00;99.90;;;;;;5091616;28;20689;-71
2022/06/01 04:10:43;;;;;;;4.28;3.83;;;16.30;99.90;;;;;;5092803;28;20187;-71
2022/06/01 04:13:10;;;;;;;4.32;3.92;;;17.20;99.90;;;;;;5092632;28;20198;-72
2022/06/01 04:15:35;;;;;;;4.10;3.70;;;19.20;99.90;;;;;;5092456;28;20214;-72
2022/06/01 04:18:01;;;;;;;4.05;3.75;;;20.20;99.90;;;;;;5088418;28;20659;-72
2022/06/01 04:20:27;;;;;;;3.80;3.40;;;21.30;99.90;;;;;;5088451;28;20198;-72
2022/06/01 04:22:54;;;;;;;4.25;3.45;;;20.50;99.90;;;;;;5092846;28;20176;-72
2022/06/01 04:25:21;;;;;;;3.90;3.60;;;19.50;99.90;;;;;;5092531;28;20171;-72
2022/06/01 04:27:46;;;;;;;4.32;3.92;;;18.80;99.90;;;;;;5091910;28;20232;-71
2022/06/01 04:30:15;;;;;;;4.25;3.90;;;18.50;99.90;;;;;;5091397;28;20293;-71
2022/06/01 04:32:43;;;;;;;4.22;3.83;;;18.30;99.90;;;;;;5091430;28;20218;-72
2022/06/01 04:35:09;;;;;;;4.55;3.70;;;19.70;99.90;;;;;;5088477;28;20588;-71
2022/06/01 04:37:36;;;;;;;3.90;3.60;;;21.00;99.90;;;;;;5093568;28;20253;-72
2022/06/01 04:40:01;;;;;;;3.78;3.40;;;22.40;99.90;;;;;;5092446;28;20207;-72
2022/06/01 04:42:27;;;;;;;3.25;3.05;;;23.50;99.90;;;;;;5091422;28;20202;-72
2022/06/01 04:44:52;;;;;;;4.13;3.72;;;24.20;99.90;;;;;;5093032;28;20209;-72
2022/06/01 04:47:19;;;;;;;3.55;3.25;;;25.00;99.90;;;;;;5092830;28;20772;-72
2022/06/01 04:49:44;;;;;;;3.55;3.25;;;25.50;99.90;;;;;;5091614;28;20289;-72
2022/06/01 04:52:10;;;;;;;3.72;3.38;;;26.20;99.90;;;;;;5091673;28;20285;-72
2022/06/01 04:54:35;;;;;;;4.03;3.15;;;26.70;99.90;;;;;;5091920;28;20232;-72
2022/06/01 04:57:01;;;;;;;4.07;3.53;;;26.90;99.90;;;;;;5092291;28;20199;-72
2022/06/01 04:59:27;;;;;;;3.28;2.97;;;26.80;99.90;;;;;;5092495;28;20205;-70
2022/06/01 05:01:52;;;;;;;3.92;3.13;;;26.70;99.90;;;;;;5093247;28;20337;-70
2022/06/01 05:04:17;;;;;;;3.10;2.80;;;27.40;99.90;;;;;;5090076;28;20265;-70
2022/06/01 05:06:43;;;;;;;3.75;3.33;;;26.00;99.90;;;;;;5107017;28;20288;-72
2022/06/01 05:09:09;;;;;;;3.50;3.20;;;24.50;99.90;;;;;;5090780;28;20198;-72
2022/06/01 05:11:34;;;;;;;3.63;3.10;;;22.70;99.90;;;;;;5090828;28;20216;-72
2022/06/01 05:14:00;;;;;;;3.95;3.65;;;21.80;99.90;;;;;;5092675;28;20627;-72
2022/06/01 05:16:26;;;;;;;4.07;3.70;;;21.30;99.90;;;;;;5091481;28;20208;-72
2022/06/01 05:18:51;;;;;;;4.05;3.65;;;20.50;99.90;;;;;;5091845;28;20202;-72
2022/06/01 05:21:17;;;;;;;4.22;3.83;;;19.70;99.90;;;;;;5090919;28;20203;-72
2022/06/01 05:23:42;;;;;;;3.78;3.47;;;19.40;99.90;;;;;;5090736;28;20202;-72
2022/06/01 05:26:08;;;;;;;4.10;3.70;;;19.50;99.90;;;;;;5090962;28;20181;-72
2022/06/01 05:28:34;;;;;;;4.10;3.70;;;20.60;99.90;;;;;;5091887;28;20181;-72
2022/06/01 05:31:09;;;;;;;4.40;3.60;;;21.30;99.90;;;;;;5090112;28;20221;-72
2022/06/01 05:33:35;;;;;;;4.20;3.58;;;21.10;99.90;;;;;;5091907;28;20201;-72
2022/06/01 05:36:01;;;;;;;4.32;3.90;;;21.20;99.90;;;;;;5088196;28;20682;-72
2022/06/01 05:38:27;;;;;;;4.80;4.40;;;20.80;99.90;;;;;;5089619;28;20224;-72
2022/06/01 05:40:52;;;;;;;4.80;4.10;;;20.50;99.90;;;;;;5092302;28;20602;-72
2022/06/01 05:43:19;;;;;;;7.05;4.35;;;20.10;99.90;;;;;;5092752;28;20568;-72
2022/06/01 05:45:45;;;;;;;5.18;4.68;;;19.90;99.90;;;;;;5090263;28;20291;-72
2022/06/01 05:48:13;;;;;;;6.10;5.00;;;19.70;99.90;;;;;;5091178;28;20190;-72
2022/06/01 05:50:39;;;;;;;4.57;3.90;;;21.60;99.90;;;;;;5090282;28;20770;-72
2022/06/01 05:53:05;;;;;;;6.25;3.90;;;23.20;99.90;;;;;;5091617;28;20261;-72
2022/06/01 05:55:31;;;;;;;5.00;3.63;;;24.50;99.90;;;;;;5090505;28;20194;-72
2022/06/01 05:57:57;;;;;;;6.38;3.47;;;25.40;99.90;;;;;;5091447;28;20206;-71
2022/06/01 06:00:22;;;;;;;3.70;2.90;;;26.70;99.90;;;;;;5090849;28;20212;-70
2022/06/01 06:02:48;;;;;;;2.90;2.67;;;27.60;99.90;;;;;;5089903;28;20214;-71
2022/06/01 06:07:59;;;;;;;3.38;2.95;;;28.30;99.90;;;;;;5091570;28;20677;-72
2022/06/01 06:10:26;;;;;;;3.92;3.00;;;29.40;99.90;;;;;;5090305;28;20182;-71
2022/06/01 06:12:52;;;;;;;3.45;3.15;;;28.00;99.90;;;;;;5089976;28;20198;-71
2022/06/01 06:15:19;;;;;;;5.50;4.00;;;28.40;99.90;;;;;;5091162;28;20586;-71
2022/06/01 06:17:45;;;;;;;5.43;3.58;;;28.50;99.90;;;;;;5090609;28;20201;-71
2022/06/01 06:20:11;;;;;;;3.50;3.20;;;28.20;99.90;;;;;;5089323;28;20218;-71
2022/06/01 06:22:37;;;;;;;4.78;2.75;;;28.00;99.90;;;;;;5089998;28;20284;-72
2022/06/01 06:25:03;;;;;;;4.22;3.30;;;27.00;99.90;;;;;;5090722;28;20286;-71
2022/06/01 06:27:28;;;;;;;3.95;2.60;;;26.10;99.90;;;;;;5091136;28;20619;-72
2022/06/01 06:29:54;;;;;;;3.75;2.97;;;25.30;99.90;;;;;;5088368;28;20217;-71
2022/06/01 06:32:20;;;;;;;4.50;2.80;;;25.00;99.90;;;;;;5090794;28;20209;-71
2022/06/01 06:34:46;;;;;;;3.22;2.88;;;24.80;99.90;;;;;;5088598;28;20194;-72
2022/06/01 06:37:12;;;;;;;4.00;2.90;;;25.40;99.90;;;;;;5089282;28;20199;-71
2022/06/01 06:39:38;;;;;;;3.33;2.78;;;25.20;99.90;;;;;;5088072;28;20210;-71
2022/06/01 06:42:03;;;;;;;5.32;2.70;;;25.50;99.90;;;;;;5090475;28;20216;-71
2022/06/01 06:44:29;;;;;;;4.65;2.85;;;25.70;99.90;;;;;;5088947;28;20209;-71
2022/06/01 06:46:55;;;;;;;3.63;2.90;;;25.70;99.90;;;;;;5088883;28;20548;-71
2022/06/01 06:49:21;;;;;;;2.95;2.75;;;25.40;99.90;;;;;;5088679;28;20174;-71
2022/06/01 06:51:48;;;;;;;4.43;2.70;;;25.80;99.90;;;;;;5089119;28;20194;-71
2022/06/01 06:54:14;;;;;;;3.40;2.25;;;25.60;99.90;;;;;;5090371;28;20659;-71
2022/06/01 06:56:39;;;;;;;2.20;2.10;;;26.20;99.90;;;;;;5090296;28;20297;-71
2022/06/01 06:59:05;;;;;;;2.08;1.92;;;27.00;99.90;;;;;;5088182;28;20303;-71
2022/06/01 07:01:30;;;;;;;4.70;1.98;;;27.90;99.90;;;;;;5090811;28;20182;-71
2022/06/01 07:03:56;;;;;;;2.20;2.03;;;28.70;99.90;;;;;;5090684;28;20194;-71
2022/06/01 07:06:23;;;;;;;2.40;1.85;;;29.30;98.80;;;;;;5087825;28;20198;-71
2022/06/01 07:08:52;;;;;;;1.90;1.80;;;30.10;98.10;;;;;;5088191;28;20801;-71
2022/06/01 07:11:20;;;;;;;2.45;1.80;;;31.10;96.40;;;;;;5090382;28;20274;-72
2022/06/01 07:13:47;;;;;;;2.35;2.15;;;31.80;93.80;;;;;;5091549;28;20184;-71
2022/06/01 07:16:14;;;;;;;2.08;1.80;;;31.60;92.50;;;;;;5090590;28;20205;-70
2022/06/01 07:18:42;;;;;;;3.42;2.10;;;31.40;92.20;;;;;;5087996;28;20198;-71
2022/06/01 07:21:07;;;;;;;2.67;2.15;;;31.80;90.90;;;;;;5090044;28;20198;-71
2022/06/01 07:23:35;;;;;;;2.30;1.73;;;32.40;89.10;;;;;;5088488;28;20205;-71
2022/06/01 07:26:01;;;;;;;3.33;1.80;;;31.00;88.80;;;;;;5088683;28;20265;-71
2022/06/01 07:28:26;;;;;;;2.00;1.80;;;29.10;91.30;;;;;;5088487;28;20162;-71
2022/06/01 07:30:59;;;;;;;1.67;1.58;;;27.80;93.30;;;;;;5115862;22;20256;-72
2022/06/01 07:33:26;;;;;;;2.28;1.80;;;26.90;94.00;;;;;;5097174;28;20714;-73
2022/06/01 07:35:53;;;;;;;3.45;1.98;;;26.70;95.80;;;;;;5099084;28;20210;-72
2022/06/01 07:43:48;;;;;;;2.95;1.52;;;28.90;93.90;;;;;;5095643;28;20188;-73
2022/06/01 07:46:14;;;;;;;2.88;1.85;;;29.10;92.90;;;;;;5076263;28;20289;-73
2022/06/01 07:48:39;;;;;;;6.43;2.30;;;29.40;93.20;;;;;;5093809;28;20625;-73
2022/06/01 07:51:05;;;;;;;1.77;1.67;;;28.90;93.00;;;;;;5076243;28;20224;-73
2022/06/01 07:53:31;;;;;;;2.20;1.98;;;29.00;93.60;;;;;;5076211;28;20202;-73
2022/06/01 07:55:57;;;;;;;2.58;1.70;;;28.10;94.30;;;;;;5076535;28;20202;-73
2022/06/01 07:58:22;;;;;;;4.43;2.15;;;28.20;95.00;;;;;;5076484;28;20240;-73
2022/06/01 08:00:48;;;;;;;2.60;2.40;;;27.70;94.50;;;;;;5077133;28;20202;-73
2022/06/01 08:03:16;;;;;;;2.92;2.42;;;27.00;93.70;;;;;;5076116;28;20202;-73
2022/06/01 08:05:43;;;;;;;3.22;2.53;;;26.40;94.30;;;;;;5094001;28;20194;-72
2022/06/01 08:08:09;;;;;;;2.65;2.45;;;25.50;95.80;;;;;;5075122;28;20215;-73
2022/06/01 08:10:36;;;;;;;5.22;2.83;;;23.90;98.70;;;;;;5076150;28;20221;-73
2022/06/01 08:13:08;;;;;;;8.15;6.78;;;23.50;99.90;;;;;;5084139;28;20571;-73
2022/06/01 08:15:40;;;;;;;4.13;3.22;;;23.00;99.90;;;;;;5093788;28;20214;-74
2022/06/01 08:18:06;;;;;;;4.97;2.80;;;22.40;99.90;;;;;;5076160;28;20218;-75
2022/06/01 08:20:32;;;;;;;6.93;4.13;;;22.40;99.90;;;;;;5098317;28;20362;-73
2022/06/01 08:22:58;;;;;;;4.63;2.60;;;22.40;99.90;;;;;;5095146;28;20179;-73
2022/06/01 08:25:25;;;;;;;2.25;1.98;;;22.70;99.90;;;;;;5077177;28;20635;-74
2022/06/01 08:27:52;;;;;;;2.72;2.30;;;22.90;99.90;;;;;;5076843;28;20297;-73
2022/06/01 08:30:20;;;;;;;3.53;2.50;;;22.90;99.90;;;;;;5076920;28;20290;-73
2022/06/01 08:32:45;;;;;;;2.72;2.28;;;22.60;99.90;;;;;;5077782;28;20207;-74
2022/06/01 08:35:13;;;;;;;4.68;3.75;;;22.40;99.90;;;;;;5095771;28;20218;-74
2022/06/01 08:37:39;;;;;;;3.90;2.30;;;22.30;99.90;;;;;;5077761;28;20179;-76
2022/06/01 08:40:06;;;;;;;3.75;2.80;;;22.30;99.90;;;;;;5076923;28;20643;-73
2022/06/01 08:42:33;;;;;;;3.75;2.63;;;22.20;99.90;;;;;;5077048;28;20210;-75
2022/06/01 08:45:06;;;;;;;3.80;2.78;;;22.40;99.90;;;;;;5075579;28;20190;-74
2022/06/01 08:47:40;;;;;;;3.22;2.40;;;22.90;99.90;;;;;;5075201;28;20210;-73
2022/06/01 08:50:24;;;;;;;6.70;2.45;;;23.20;99.90;;;;;;5093150;28;20170;-74
2022/06/01 08:52:51;;;;;;;2.42;2.10;;;23.60;99.90;;;;;;5075219;28;20526;-74
2022/06/01 08:55:17;;;;;;;4.40;2.38;;;23.90;99.90;;;;;;5075687;28;20202;-74
2022/06/01 08:57:48;;;;;;;4.85;2.55;;;23.30;99.90;;;;;;5093122;28;20308;-73
2022/06/01 09:00:18;;;;;;;3.65;2.83;;;23.60;99.90;;;;;;5075539;28;20202;-73
2022/06/01 09:02:54;;;;;;;3.22;1.70;;;23.60;99.90;;;;;;5075475;28;20664;-73
2022/06/01 09:05:40;;;;;;;4.90;2.20;;;23.60;99.90;;;;;;5075154;28;20204;-74
2022/06/01 09:08:15;;;;;;;3.28;2.13;;;23.70;99.90;;;;;;5074591;28;20257;-73
2022/06/01 09:10:50;;;;;;;3.53;2.40;;;23.60;99.90;;;;;;5094146;28;20190;-74
2022/06/01 09:13:46;;;;;;;2.60;2.13;;;24.20;99.90;;;;;;5093079;28;20655;-74
2022/06/01 09:16:20;;;;;;;2.88;2.05;;;25.60;99.90;;;;;;5074518;28;20217;-74
2022/06/01 09:18:52;;;;;;;5.75;2.05;;;26.40;99.90;;;;;;5074059;28;20197;-74
2022/06/01 09:24:34;;;;;;;3.20;1.70;;;26.90;97.30;;;;;;5093443;28;20344;-74
2022/06/01 09:27:06;;;;;;;2.22;1.85;;;27.00;97.20;;;;;;5074796;28;20198;-73
2022/06/01 09:29:47;;;;;;;4.38;2.15;;;26.60;97.30;;;;;;5091966;28;20293;-73
2022/06/01 09:32:31;;;;;;;4.18;2.10;;;25.30;97.60;;;;;;5074785;28;20210;-73
2022/06/01 09:35:10;;;;;;;2.50;1.83;;;24.70;99.00;;;;;;5092594;28;20194;-74
2022/06/01 09:37:41;;;;;;;3.08;2.03;;;25.50;98.60;;;;;;5074562;28;20654;-74
2022/06/01 09:40:29;;;;;;;3.20;2.22;;;26.20;97.60;;;;;;5074032;28;20191;-73
2022/06/01 09:42:55;;;;;;;2.42;1.73;;;26.10;97.80;;;;;;5074379;28;20197;-74
2022/06/01 09:45:24;;;;;;;2.00;1.75;;;25.80;96.40;;;;;;5092186;28;20331;-74
2022/06/01 09:47:51;;;;;;;3.33;1.92;;;24.90;97.20;;;;;;5073532;28;20198;-75
2022/06/01 09:50:34;;;;;;;3.75;2.33;;;25.30;97.10;;;;;;5073676;28;20202;-73
2022/06/01 09:53:21;;;;;;;3.20;2.10;;;23.70;98.60;;;;;;5073247;28;20171;-73
2022/06/01 09:56:04;;;;;;;2.42;1.98;;;24.10;99.80;;;;;;5092478;28;20542;-73
2022/06/01 10:06:54;;;;;;;2.55;2.05;;;24.60;98.50;;;;;;5092284;28;20208;-73
2022/06/01 10:09:29;;;;;;;3.60;2.25;;;24.00;98.50;;;;;;5073116;28;20194;-73
2022/06/01 10:11:57;;;;;;;4.03;3.63;;;24.10;99.70;;;;;;5074072;28;20213;-73
2022/06/01 10:14:32;;;;;;;4.78;3.60;;;24.60;97.90;;;;;;5073923;28;20547;-73
2022/06/01 10:17:18;;;;;;;9.55;4.20;;;24.90;98.10;;;;;;5073834;28;20162;-73
2022/06/01 10:19:53;;;;;;;5.65;3.63;;;25.30;97.20;;;;;;5073214;28;20532;-75
2022/06/01 10:22:28;;;;;;;3.78;3.05;;;25.60;97.10;;;;;;5074399;28;20198;-73
2022/06/01 10:25:13;;;;;;;4.63;3.00;;;25.40;96.30;;;;;;5093619;28;20201;-73
2022/06/01 10:27:53;;;;;;;3.60;2.08;;;24.90;96.30;;;;;;5077085;28;20228;-74
2022/06/01 10:30:21;;;;;;;5.40;2.42;;;24.70;96.10;;;;;;5096376;28;20241;-75
2022/06/01 10:33:21;;;;;;;2.63;2.40;;;23.80;96.80;;;;;;5085053;28;20202;-73
2022/06/01 10:35:56;;;;;;;3.13;2.13;;;23.40;97.00;;;;;;5037789;28;20244;-72
2022/06/01 10:38:41;;;;;;;3.13;2.15;;;23.80;97.20;;;;;;5092687;28;20229;-73
2022/06/01 10:41:20;;;;;;;2.03;1.83;;;24.40;97.00;;;;;;5092732;28;20205;-73
2022/06/01 10:44:18;;;;;;;2.08;1.80;;;24.20;96.10;;;;;;5093372;28;20178;-72
2022/06/01 10:47:14;;;;;;;4.03;2.13;;;24.70;97.10;;;;;;5094903;28;20233;-74
2022/06/01 10:49:49;;;;;;;5.43;2.58;;;25.10;95.80;;;;;;5085363;28;20293;-72
2022/06/01 10:52:34;;;;;;;3.70;2.67;;;24.50;95.80;;;;;;5089600;28;20606;-73
2022/06/01 10:55:25;;;;;;;6.93;3.08;;;24.20;96.40;;;;;;5073066;28;20573;-73
2022/06/01 10:57:51;;;;;;;2.38;2.17;;;24.20;96.30;;;;;;5090593;28;20331;-73
2022/06/01 11:00:31;;;;;;;4.35;2.25;;;24.70;95.50;;;;;;5090722;28;20202;-73
2022/06/01 11:03:27;;;;;;;4.57;3.00;;;24.30;95.80;;;;;;5084337;28;20197;-73
2022/06/01 11:06:34;;;;;;;4.07;2.63;;;24.20;96.00;;;;;;5086282;28;20248;-73
2022/06/01 11:09:20;;;;;;;2.40;2.03;;;24.00;95.90;;;;;;5089892;28;20206;-73
2022/06/01 11:11:48;;;;;;;3.58;2.55;;;23.90;96.50;;;;;;5090942;28;20206;-74
2022/06/01 11:14:37;;;;;;;4.45;2.30;;;24.10;97.20;;;;;;5072547;28;20202;-73
2022/06/01 11:17:40;;;;;;;2.53;2.13;;;24.20;96.70;;;;;;5073014;28;20599;-73
2022/06/01 11:20:39;;;;;;;4.80;2.63;;;23.60;97.10;;;;;;5091081;28;20674;-73
2022/06/01 11:23:31;;;;;;;3.05;2.05;;;23.90;97.20;;;;;;5067262;28;20540;-72
2022/06/01 11:26:17;;;;;;;3.42;2.72;;;23.90;96.50;;;;;;5090850;28;20167;-72
2022/06/01 11:28:48;;;;;;;3.00;2.42;;;22.90;96.70;;;;;;5072093;28;20189;-75
2022/06/01 11:31:22;;;;;;;3.80;2.38;;;22.60;97.20;;;;;;5090645;28;20675;-75
2022/06/01 11:34:26;;;;;;;4.07;2.50;;;22.40;97.20;;;;;;5090778;28;20210;-74
2022/06/01 11:37:09;;;;;;;2.90;2.40;;;22.70;97.60;;;;;;5041694;28;20221;-75
2022/06/01 11:39:47;;;;;;;3.33;2.50;;;22.80;97.00;;;;;;5071684;28;20250;-74
2022/06/01 11:42:23;;;;;;;2.80;2.00;;;23.30;96.90;;;;;;5072757;28;20210;-74
2022/06/01 11:45:03;;;;;;;3.60;2.03;;;23.50;97.00;;;;;;5073238;28;20550;-74
2022/06/01 11:47:52;;;;;;;3.63;2.58;;;23.90;96.70;;;;;;5072727;28;20202;-75
2022/06/01 11:50:53;;;;;;;4.32;2.30;;;23.90;96.50;;;;;;5090508;28;20203;-74
2022/06/01 11:53:29;;;;;;;4.10;3.17;;;23.30;96.70;;;;;;5073233;28;20208;-75
2022/06/01 11:56:10;;;;;;;8.07;5.20;;;23.10;97.20;;;;;;5072530;28;20198;-75
2022/06/01 11:58:40;;;;;;;2.95;2.33;;;23.10;97.70;;;;;;5071501;28;20167;-74
2022/06/01 12:01:45;;;;;;;2.95;2.75;;;22.90;97.90;;;;;;5091000;28;20222;-74
2022/06/01 12:04:32;;;;;;;2.95;2.00;;;22.70;98.30;;;;;;5090999;28;20218;-75
2022/06/01 12:07:05;;;;;;;3.00;1.88;;;23.20;98.10;;;;;;5090714;28;20190;-74
2022/06/01 12:09:35;;;;;;;2.53;1.60;;;23.00;97.80;;;;;;5089966;28;20198;-74
2022/06/01 12:12:01;;;;;;;2.17;1.48;;;23.10;96.90;;;;;;5090726;28;20202;-75
2022/06/01 12:14:39;;;;;;;2.60;1.70;;;23.10;95.90;;;;;;5090151;28;20706;-75
2022/06/01 12:17:17;;;;;;;1.60;1.50;;;23.30;95.20;;;;;;5075479;28;20639;-75
2022/06/01 12:19:45;;;;;;;2.10;1.70;;;23.30;95.50;;;;;;5093759;28;20178;-75
2022/06/01 12:28:31;;;;;;;2.70;1.83;;;22.50;97.20;;;;;;5093585;28;20343;-75
2022/06/01 12:31:35;;;;;;;2.40;1.52;;;22.40;97.40;;;;;;5075441;28;20228;-75
2022/06/01 12:34:24;;;;;;;3.63;1.73;;;22.50;97.70;;;;;;5088702;28;20301;-75
2022/06/01 12:37:15;;;;;;;3.70;1.90;;;22.40;97.60;;;;;;5085922;28;20206;-75
2022/06/01 12:39:40;;;;;;;2.35;1.83;;;22.50;97.60;;;;;;5092711;28;21010;-74
2022/06/01 12:42:19;;;;;;;2.63;1.52;;;22.20;97.60;;;;;;5093827;28;20273;-75
2022/06/01 12:44:48;;;;;;;3.88;1.30;;;22.00;97.60;;;;;;5093688;28;20190;-74
2022/06/01 12:47:35;;;;;;;2.75;2.03;;;21.50;99.90;;;;;;5093656;28;20591;-75
2022/06/01 12:50:10;;;;;;;5.38;2.42;;;21.10;99.90;;;;;;5074752;28;20220;-75
2022/06/01 12:52:36;;;;;;;5.35;3.78;;;20.20;99.90;;;;;;5093856;28;20192;-74
2022/06/01 12:55:10;;;;;;;4.22;2.55;;;19.90;99.90;;;;;;5093344;28;20659;-74
2022/06/01 12:57:47;;;;;;;3.00;2.25;;;19.70;99.90;;;;;;5093042;28;20206;-74
2022/06/01 13:00:17;;;;;;;4.95;2.30;;;19.40;99.90;;;;;;5093124;28;20297;-74
2022/06/01 13:02:45;;;;;;;3.45;2.00;;;19.40;99.90;;;;;;5074873;28;20200;-75
2022/06/01 13:05:13;;;;;;;5.03;2.47;;;19.10;99.90;;;;;;5093566;28;20209;-75
2022/06/01 13:07:44;;;;;;;5.85;3.63;;;18.90;99.90;;;;;;5093620;28;20178;-75
2022/06/01 13:10:17;;;;;;;3.05;1.90;;;19.00;99.90;;;;;;5092762;28;20742;-76
2022/06/01 13:12:43;;;;;;;4.40;2.30;;;18.90;99.90;;;;;;5093173;28;20198;-74
2022/06/01 13:15:13;;;;;;;3.58;2.38;;;18.60;99.90;;;;;;5074774;28;20592;-75
2022/06/01 13:17:57;;;;;;;2.47;2.00;;;18.70;99.90;;;;;;5092870;28;20547;-75
2022/06/01 13:20:39;;;;;;;2.83;2.40;;;18.80;99.90;;;;;;5092369;28;20250;-75
2022/06/01 13:23:31;;;;;;;2.28;2.08;;;19.10;99.90;;;;;;5092937;28;20639;-75
2022/06/01 13:26:02;;;;;;;3.63;2.17;;;19.50;99.90;;;;;;5091351;28;20197;-74
2022/06/01 13:28:28;;;;;;;3.08;2.35;;;19.80;99.90;;;;;;5091480;28;20174;-74
2022/06/01 13:30:56;;;;;;;2.22;2.00;;;20.10;99.90;;;;;;5074413;28;20206;-75
2022/06/01 13:33:36;;;;;;;4.60;2.25;;;20.30;99.90;;;;;;5042870;22;20221;-74
2022/06/01 13:36:09;;;;;;;4.15;2.53;;;20.20;99.90;;;;;;5031704;28;20266;-74
2022/06/01 13:38:43;;;;;;;4.38;2.30;;;20.40;99.90;;;;;;5013634;28;20212;-74
2022/06/01 13:41:21;;;;;;;2.67;2.22;;;20.50;99.90;;;;;;5032149;28;20227;-74